createdAt,value
2023-11-23T00:00:22.883Z,20.87
2023-11-23T00:03:24.569Z,27.70
2023-11-23T00:06:26.182Z,29.45
2023-11-23T00:09:28.040Z,22.30
2023-11-23T00:12:31.423Z,29.30
2023-11-23T00:15:33.082Z,28.37
2023-11-23T00:18:35.185Z,25.27
2023-11-23T00:21:37.198Z,26.45
2023-11-23T00:24:40.116Z,19.55
2023-11-23T00:27:41.925Z,27.90
2023-11-23T00:30:43.616Z,28.73
2023-11-23T00:33:45.370Z,24.67
2023-11-23T00:36:47.013Z,24.60
2023-11-23T00:39:48.787Z,24.70
2023-11-23T00:42:51.240Z,26.00
2023-11-23T00:45:53.137Z,27.53
2023-11-23T00:48:56.009Z,22.60
2023-11-23T00:51:57.587Z,27.67
2023-11-23T00:54:59.380Z,27.58
2023-11-23T00:58:03.455Z,27.77
2023-11-23T01:01:06.795Z,23.03
2023-11-23T01:04:09.227Z,22.85
2023-11-23T01:07:10.989Z,25.08
2023-11-23T01:10:14.600Z,27.90
2023-11-23T01:13:16.619Z,27.00
2023-11-23T01:16:18.428Z,25.53
2023-11-23T01:19:20.058Z,24.65
2023-11-23T01:22:21.796Z,26.55
2023-11-23T01:25:23.415Z,24.15
2023-11-23T01:28:25.020Z,22.83
2023-11-23T01:31:26.634Z,25.17
2023-11-23T01:34:28.359Z,23.77
2023-11-23T01:37:30.010Z,22.45
2023-11-23T01:40:31.913Z,20.50
2023-11-23T01:43:33.509Z,25.27
2023-11-23T01:46:35.124Z,23.97
2023-11-23T01:49:39.184Z,23.77
2023-11-23T01:52:40.891Z,23.88
2023-11-23T01:55:42.505Z,23.20
2023-11-23T01:58:44.257Z,22.20
2023-11-23T02:01:45.892Z,21.63
2023-11-23T02:04:49.837Z,20.52
2023-11-23T02:07:51.514Z,23.35
2023-11-23T02:10:53.301Z,20.85
2023-11-23T02:13:55.387Z,18.00
2023-11-23T02:16:56.967Z,18.60
2023-11-23T02:19:59.942Z,20.83
2023-11-23T02:23:01.618Z,20.80
2023-11-23T02:26:03.289Z,18.80
2023-11-23T02:29:05.774Z,17.63
2023-11-23T02:32:11.613Z,12.00
2023-11-23T02:35:14.200Z,16.30
2023-11-23T02:38:15.908Z,14.75
2023-11-23T02:41:17.482Z,18.08
2023-11-23T02:44:19.130Z,15.53
2023-11-23T02:47:20.768Z,14.37
2023-11-23T02:50:22.455Z,15.13
2023-11-23T02:53:31.852Z,17.52
2023-11-23T02:56:34.354Z,17.92
2023-11-23T02:59:36.003Z,16.37
2023-11-23T03:02:37.672Z,18.23
2023-11-23T03:05:42.246Z,19.17
2023-11-23T03:08:44.628Z,19.75
2023-11-23T03:11:47.430Z,20.25
2023-11-23T03:14:49.042Z,12.73
2023-11-23T03:17:50.936Z,16.77
2023-11-23T03:20:52.691Z,18.20
2023-11-23T03:23:54.428Z,20.35
2023-11-23T03:26:56.056Z,19.70
2023-11-23T03:29:57.726Z,18.50
2023-11-23T03:32:59.584Z,20.47
2023-11-23T03:36:01.285Z,17.95
2023-11-23T03:39:02.996Z,19.25
2023-11-23T03:42:06.459Z,19.48
2023-11-23T03:45:08.373Z,18.97
2023-11-23T03:48:10.166Z,19.80
2023-11-23T03:51:17.816Z,21.02
2023-11-23T03:54:19.464Z,19.77
2023-11-23T03:57:21.170Z,18.70
2023-11-23T04:00:22.933Z,17.00
2023-11-23T04:03:24.574Z,19.33
2023-11-23T04:06:26.280Z,12.70
2023-11-23T04:09:28.092Z,19.05
2023-11-23T04:12:29.851Z,18.40
2023-11-23T04:15:31.599Z,18.83
2023-11-23T04:18:33.425Z,20.37
2023-11-23T04:21:35.057Z,17.27
2023-11-23T04:24:42.161Z,18.08
2023-11-23T04:27:44.652Z,20.13
2023-11-23T04:30:46.332Z,16.03
2023-11-23T04:33:48.034Z,16.20
2023-11-23T04:36:49.991Z,14.50
2023-11-23T04:39:52.423Z,15.07
2023-11-23T04:42:54.129Z,15.63
2023-11-23T04:45:55.730Z,17.30
2023-11-23T04:48:57.415Z,14.53
2023-11-23T04:51:59.144Z,16.35
2023-11-23T04:55:00.848Z,17.38
2023-11-23T04:58:02.913Z,16.13
2023-11-23T05:01:04.775Z,15.23
2023-11-23T05:04:06.730Z,16.70
2023-11-23T05:07:08.505Z,15.27
2023-11-23T05:10:10.619Z,16.80
2023-11-23T05:13:13.678Z,16.65
2023-11-23T05:16:15.565Z,18.70
2023-11-23T05:19:31.222Z,16.80
2023-11-23T05:22:39.563Z,23.08
2023-11-23T05:25:41.436Z,24.45
2023-11-23T05:28:43.100Z,18.83
2023-11-23T05:31:44.713Z,16.67
2023-11-23T05:34:46.416Z,20.57
2023-11-23T05:37:48.113Z,19.90
2023-11-23T05:40:50.262Z,18.98
2023-11-23T05:43:52.134Z,19.27
2023-11-23T05:46:53.881Z,36.80
2023-11-23T05:49:55.555Z,43.77
2023-11-23T05:52:57.172Z,24.70
2023-11-23T05:55:59.333Z,21.25
2023-11-23T05:59:00.948Z,27.67
2023-11-23T06:02:06.666Z,39.97
2023-11-23T06:05:08.446Z,19.97
2023-11-23T06:08:10.081Z,19.38
2023-11-23T06:11:11.718Z,21.02
2023-11-23T06:14:13.477Z,21.17
2023-11-23T06:17:15.897Z,20.23
2023-11-23T06:20:17.725Z,20.60
2023-11-23T06:23:19.509Z,18.90
2023-11-23T06:26:21.942Z,19.00
2023-11-23T06:29:23.857Z,23.67
2023-11-23T06:32:25.562Z,20.87
2023-11-23T06:35:27.211Z,22.03
2023-11-23T06:38:29.733Z,19.98
2023-11-23T06:41:31.547Z,30.30
2023-11-23T06:44:33.187Z,22.92
2023-11-23T06:47:34.844Z,21.40
2023-11-23T06:50:36.566Z,24.23
2023-11-23T06:53:50.360Z,22.02
2023-11-23T06:56:52.287Z,23.63
2023-11-23T06:59:53.952Z,24.63
2023-11-23T07:03:00.082Z,21.23
2023-11-23T07:06:02.880Z,21.60
2023-11-23T07:09:04.964Z,23.08
2023-11-23T07:12:07.575Z,23.90
2023-11-23T07:15:16.060Z,22.55
2023-11-23T07:18:19.442Z,24.10
2023-11-23T07:21:22.517Z,24.77
2023-11-23T07:24:24.247Z,24.65
2023-11-23T07:27:26.044Z,22.05
2023-11-23T07:30:27.800Z,21.23
2023-11-23T07:33:35.809Z,22.10
2023-11-23T07:36:37.733Z,23.07
2023-11-23T07:39:39.508Z,19.70
2023-11-23T07:42:41.914Z,23.83
2023-11-23T07:45:44.320Z,24.73
2023-11-23T07:48:51.877Z,26.00
2023-11-23T07:51:56.339Z,19.97
2023-11-23T07:54:57.991Z,26.83
2023-11-23T07:57:59.882Z,23.38
2023-11-23T08:01:01.944Z,24.83
2023-11-23T08:04:04.776Z,26.47
2023-11-23T08:07:06.606Z,25.27
2023-11-23T08:10:08.543Z,23.63
2023-11-23T08:13:11.926Z,25.42
2023-11-23T08:16:13.639Z,26.65
2023-11-23T08:19:15.599Z,26.90
2023-11-23T08:22:20.789Z,23.80
2023-11-23T08:25:22.501Z,24.77
2023-11-23T08:28:24.122Z,24.08
2023-11-23T08:31:29.672Z,23.25
2023-11-23T08:34:31.673Z,23.07
2023-11-23T08:37:33.595Z,19.90
2023-11-23T08:40:57.187Z,20.20
2023-11-23T08:43:59.981Z,21.75
2023-11-23T08:47:01.990Z,20.10
2023-11-23T08:50:04.079Z,20.27
2023-11-23T08:53:06.276Z,19.43
2023-11-23T08:56:08.128Z,18.98
2023-11-23T08:59:11.634Z,16.83
2023-11-23T09:02:19.992Z,17.60
2023-11-23T09:05:23.550Z,22.45
2023-11-23T09:08:26.321Z,18.97
2023-11-23T09:11:28.295Z,19.58
2023-11-23T09:14:34.876Z,18.38
2023-11-23T09:17:41.934Z,18.35
2023-11-23T09:20:44.546Z,20.00
2023-11-23T09:23:46.399Z,21.80
2023-11-23T09:26:48.588Z,19.77
2023-11-23T09:29:50.365Z,21.00
2023-11-23T09:32:52.151Z,22.63
2023-11-23T09:35:53.874Z,20.07
2023-11-23T09:38:56.321Z,21.10
2023-11-23T09:41:59.809Z,22.85
2023-11-23T09:45:02.859Z,18.70
2023-11-23T09:48:08.811Z,18.90
2023-11-23T09:51:11.995Z,22.73
2023-11-23T09:54:19.555Z,20.87
2023-11-23T09:57:21.476Z,25.90
2023-11-23T10:00:23.869Z,26.50
2023-11-23T10:03:28.366Z,23.70
2023-11-23T10:06:30.257Z,22.98
2023-11-23T10:09:35.508Z,19.80
2023-11-23T10:12:37.800Z,23.83
2023-11-23T10:15:39.698Z,25.98
2023-11-23T10:18:44.841Z,23.77
2023-11-23T10:21:46.604Z,26.17
2023-11-23T10:24:49.631Z,24.37
2023-11-23T10:27:52.937Z,25.02
2023-11-23T10:30:56.036Z,25.48
2023-11-23T10:33:57.858Z,24.33
2023-11-23T10:37:00.736Z,28.50
2023-11-23T10:40:04.972Z,25.67
2023-11-23T10:43:10.497Z,22.88
2023-11-23T10:46:15.051Z,21.63
2023-11-23T10:49:18.917Z,22.77
2023-11-23T10:52:23.041Z,23.48
2023-11-23T10:55:25.471Z,21.13
2023-11-23T10:58:29.018Z,23.25
2023-11-23T11:01:32.048Z,27.13
2023-11-23T11:04:34.654Z,20.17
2023-11-23T11:07:36.657Z,25.37
2023-11-23T11:10:44.446Z,26.03
2023-11-23T11:13:47.052Z,28.95
2023-11-23T11:16:48.830Z,25.30
2023-11-23T11:19:51.162Z,23.08
2023-11-23T11:22:56.835Z,22.65
2023-11-23T11:26:11.004Z,21.23
2023-11-23T11:29:12.802Z,17.77
2023-11-23T11:32:15.807Z,14.88
2023-11-23T11:35:19.492Z,16.15
2023-11-23T11:38:21.195Z,18.27
2023-11-23T11:41:27.753Z,17.50
2023-11-23T11:44:34.919Z,15.57
2023-11-23T11:47:42.707Z,16.55
2023-11-23T11:50:44.580Z,15.75
2023-11-23T11:53:47.519Z,14.88
2023-11-23T11:56:53.059Z,16.53
2023-11-23T11:59:54.766Z,16.33
2023-11-23T12:02:56.588Z,15.45
2023-11-23T12:05:58.526Z,16.10
2023-11-23T12:09:00.414Z,18.63
2023-11-23T12:12:06.480Z,16.13
2023-11-23T12:15:08.924Z,15.32
2023-11-23T12:18:14.405Z,14.63
2023-11-23T12:21:18.406Z,17.02
2023-11-23T12:24:20.828Z,15.20
2023-11-23T12:27:25.851Z,17.10
2023-11-23T12:30:28.161Z,16.95
2023-11-23T12:33:29.952Z,16.85
2023-11-23T12:36:31.654Z,14.65
2023-11-23T12:39:33.830Z,14.40
2023-11-23T12:42:35.721Z,15.30
2023-11-23T12:45:39.404Z,14.60
2023-11-23T12:48:41.232Z,16.85
2023-11-23T12:51:43.423Z,14.63
2023-11-23T12:54:45.182Z,15.30
2023-11-23T12:57:47.066Z,15.73
2023-11-23T13:00:48.845Z,14.63
2023-11-23T13:03:52.195Z,13.65
2023-11-23T13:06:56.051Z,14.80
2023-11-23T13:09:58.942Z,16.30
2023-11-23T13:13:01.520Z,15.07
2023-11-23T13:16:04.538Z,14.55
2023-11-23T13:19:17.029Z,13.50
2023-11-23T13:22:28.465Z,13.25
2023-11-23T13:25:30.194Z,14.53
2023-11-23T13:28:32.197Z,11.73
2023-11-23T13:31:36.740Z,13.63
2023-11-23T13:34:38.534Z,13.15
2023-11-23T13:37:40.304Z,12.55
2023-11-23T13:40:42.531Z,12.43
2023-11-23T13:43:44.571Z,12.70
2023-11-23T13:46:46.472Z,11.35
2023-11-23T13:49:48.326Z,11.48
2023-11-23T13:52:50.589Z,14.23
2023-11-23T13:55:52.452Z,12.27
2023-11-23T13:58:54.834Z,13.07
2023-11-23T14:01:56.568Z,14.48
2023-11-23T14:04:59.159Z,12.93
2023-11-23T14:08:01.061Z,16.48
2023-11-23T14:11:03.002Z,12.43
2023-11-23T14:14:06.788Z,13.23
2023-11-23T14:17:10.078Z,14.65
2023-11-23T14:20:13.643Z,13.40
2023-11-23T14:23:15.286Z,15.48
2023-11-23T14:26:20.844Z,16.40
2023-11-23T14:29:22.512Z,16.37
2023-11-23T14:32:24.242Z,15.52
2023-11-23T14:35:26.240Z,13.60
2023-11-23T14:38:27.996Z,15.05
2023-11-23T14:41:29.839Z,16.92
2023-11-23T14:44:31.561Z,15.97
2023-11-23T14:47:34.501Z,18.38
2023-11-23T14:50:36.319Z,20.02
2023-11-23T14:53:40.016Z,21.77
2023-11-23T14:56:41.801Z,23.57
2023-11-23T14:59:43.477Z,22.90
2023-11-23T15:02:46.796Z,22.13
2023-11-23T15:05:50.021Z,23.70
2023-11-23T15:08:51.662Z,23.23
2023-11-23T15:11:53.835Z,22.83
2023-11-23T15:14:58.362Z,21.73
2023-11-23T15:18:01.017Z,23.02
2023-11-23T15:21:02.776Z,20.35
2023-11-23T15:24:05.140Z,24.20
2023-11-23T15:27:08.721Z,22.90
2023-11-23T15:30:12.640Z,23.37
2023-11-23T15:33:19.942Z,23.27
2023-11-23T15:36:22.128Z,22.90
2023-11-23T15:39:26.631Z,30.23
2023-11-23T15:42:29.503Z,26.67
2023-11-23T15:45:31.712Z,25.50
2023-11-23T15:48:34.099Z,21.90
2023-11-23T15:51:36.699Z,21.60
2023-11-23T15:54:39.652Z,20.85
2023-11-23T15:57:43.349Z,24.50
2023-11-23T16:00:45.319Z,23.93
2023-11-23T16:03:48.653Z,23.00
2023-11-23T16:06:50.608Z,23.40
2023-11-23T16:09:52.326Z,21.27
2023-11-23T16:12:54.060Z,18.23
2023-11-23T16:15:57.369Z,23.43
2023-11-23T16:18:59.192Z,24.30
2023-11-23T16:22:00.859Z,24.17
2023-11-23T16:25:03.645Z,23.65
2023-11-23T16:28:06.017Z,23.63
2023-11-23T16:31:08.208Z,25.73
2023-11-23T16:34:09.904Z,23.23
2023-11-23T16:37:12.591Z,23.50
2023-11-23T16:40:15.355Z,22.98
2023-11-23T16:43:18.008Z,25.17
2023-11-23T16:46:20.468Z,25.80
2023-11-23T16:49:22.200Z,24.63
2023-11-23T16:52:24.017Z,23.70
2023-11-23T16:55:25.797Z,24.23
2023-11-23T16:58:27.498Z,21.27
2023-11-23T17:01:29.233Z,24.03
2023-11-23T17:04:31.261Z,23.20
2023-11-23T17:07:33.029Z,26.45
2023-11-23T17:10:35.976Z,24.75
2023-11-23T17:13:37.951Z,28.73
2023-11-23T17:16:39.709Z,30.47
2023-11-23T17:19:41.614Z,23.65
2023-11-23T17:22:46.495Z,25.05
2023-11-23T17:25:48.304Z,27.13
2023-11-23T17:28:50.197Z,27.60
2023-11-23T17:31:58.177Z,27.47
2023-11-23T17:35:00.409Z,26.52
2023-11-23T17:38:02.130Z,28.73
2023-11-23T17:41:05.257Z,32.13
2023-11-23T17:44:07.062Z,26.80
2023-11-23T17:47:08.755Z,28.93
2023-11-23T17:50:12.840Z,24.83
2023-11-23T17:53:16.801Z,27.60
2023-11-23T17:56:20.257Z,26.65
2023-11-23T17:59:33.950Z,30.33
2023-11-23T18:02:44.531Z,25.70
2023-11-23T18:05:46.459Z,22.40
2023-11-23T18:08:48.307Z,24.27
2023-11-23T18:11:50.465Z,23.80
2023-11-23T18:14:52.338Z,21.73
2023-11-23T18:17:54.087Z,19.37
2023-11-23T18:20:57.558Z,19.17
2023-11-23T18:23:59.945Z,23.92
2023-11-23T18:27:05.075Z,18.83
2023-11-23T18:30:07.544Z,19.50
2023-11-23T18:33:09.350Z,21.53
2023-11-23T18:36:11.254Z,18.88
2023-11-23T18:39:15.008Z,17.00
2023-11-23T18:42:16.956Z,18.00
2023-11-23T18:45:20.307Z,17.73
2023-11-23T18:48:22.335Z,20.70
2023-11-23T18:51:24.268Z,18.08
2023-11-23T18:54:26.706Z,16.17
2023-11-23T18:57:28.360Z,15.40
2023-11-23T19:00:32.062Z,16.73
2023-11-23T19:03:34.061Z,15.03
2023-11-23T19:06:35.981Z,16.08
2023-11-23T19:09:40.374Z,17.63
2023-11-23T19:13:00.170Z,14.55
2023-11-23T19:16:07.685Z,15.00
2023-11-23T19:19:09.906Z,14.93
2023-11-23T19:22:11.874Z,11.98
2023-11-23T19:25:14.093Z,11.32
2023-11-23T19:28:16.691Z,12.70
2023-11-23T19:31:18.675Z,13.50
2023-11-23T19:34:20.649Z,13.07
2023-11-23T19:37:23.134Z,14.25
2023-11-23T19:40:26.827Z,14.35
2023-11-23T19:43:30.383Z,15.23
2023-11-23T19:46:32.589Z,22.73
2023-11-23T19:49:34.516Z,19.83
2023-11-23T19:52:50.229Z,15.57
2023-11-23T19:55:52.399Z,16.00
2023-11-23T19:58:54.144Z,16.90
2023-11-23T20:02:01.436Z,20.27
2023-11-23T20:05:04.483Z,24.07
2023-11-23T20:08:09.794Z,25.13
2023-11-23T20:11:13.497Z,23.20
2023-11-23T20:14:15.138Z,26.52
2023-11-23T20:17:20.672Z,23.27
2023-11-23T20:20:22.349Z,28.03
2023-11-23T20:23:24.089Z,26.55
2023-11-23T20:26:25.747Z,25.10
2023-11-23T20:29:27.324Z,27.40
2023-11-23T20:32:29.063Z,25.00
2023-11-23T20:35:30.755Z,20.40
2023-11-23T20:38:32.532Z,24.13
2023-11-23T20:41:34.252Z,20.67
2023-11-23T20:44:35.932Z,20.83
2023-11-23T20:47:37.622Z,19.27
2023-11-23T20:50:40.352Z,20.43
2023-11-23T20:53:42.173Z,21.83
2023-11-23T20:56:44.735Z,16.20
2023-11-23T20:59:46.650Z,18.45
2023-11-23T21:02:48.776Z,19.40
2023-11-23T21:05:50.823Z,17.00
2023-11-23T21:08:52.883Z,16.73
2023-11-23T21:11:55.299Z,16.60
2023-11-23T21:14:57.061Z,18.90
2023-11-23T21:17:58.820Z,19.97
2023-11-23T21:21:00.878Z,19.60
2023-11-23T21:24:02.825Z,17.40
2023-11-23T21:27:06.673Z,17.42
2023-11-23T21:30:09.665Z,17.80
2023-11-23T21:33:12.233Z,17.70
2023-11-23T21:36:14.728Z,17.60
2023-11-23T21:39:17.362Z,18.30
2023-11-23T21:42:19.769Z,20.23
2023-11-23T21:45:22.074Z,16.35
2023-11-23T21:48:24.828Z,18.53
2023-11-23T21:51:30.097Z,19.37
2023-11-23T21:54:31.800Z,20.02
2023-11-23T21:57:33.447Z,20.45
2023-11-23T22:00:35.147Z,21.27
2023-11-23T22:03:37.144Z,24.47
2023-11-23T22:06:38.874Z,18.83
2023-11-23T22:09:40.541Z,19.50
2023-11-23T22:12:44.811Z,19.73
2023-11-23T22:15:46.834Z,22.55
2023-11-23T22:18:48.780Z,18.53
2023-11-23T22:21:54.015Z,18.03
2023-11-23T22:24:55.914Z,21.10
2023-11-23T22:27:57.982Z,20.13
2023-11-23T22:31:00.835Z,25.10
2023-11-23T22:34:03.148Z,22.77
2023-11-23T22:37:05.297Z,22.10
2023-11-23T22:40:07.589Z,23.75
2023-11-23T22:43:10.113Z,19.83
2023-11-23T22:46:13.323Z,19.65
2023-11-23T22:49:14.959Z,24.20
2023-11-23T22:52:16.922Z,24.40
2023-11-23T22:55:18.656Z,17.90
2023-11-23T22:58:20.280Z,21.90
2023-11-23T23:01:24.973Z,23.75
2023-11-23T23:04:26.746Z,21.20
2023-11-23T23:07:28.411Z,24.90
2023-11-23T23:10:30.389Z,24.33
2023-11-23T23:13:32.363Z,22.73
2023-11-23T23:16:34.357Z,24.85
2023-11-23T23:19:35.993Z,26.97
2023-11-23T23:22:37.700Z,25.13
2023-11-23T23:25:40.129Z,23.60
2023-11-23T23:28:41.726Z,25.38
2023-11-23T23:31:44.073Z,26.20
2023-11-23T23:34:45.961Z,20.73
2023-11-23T23:37:47.636Z,24.60
2023-11-23T23:40:51.391Z,24.80
2023-11-23T23:43:53.345Z,27.17
2023-11-23T23:46:56.997Z,28.05
2023-11-23T23:49:58.867Z,25.03
2023-11-23T23:53:00.537Z,27.67
2023-11-23T23:56:02.179Z,31.92
2023-11-23T23:59:03.774Z,25.75
